createdAt,value
2022-11-08T00:02:13.189Z,100654.34
2022-11-08T00:04:39.978Z,100651.72
2022-11-08T00:07:25.071Z,100651.84
2022-11-08T00:10:10.286Z,100660.31
2022-11-08T00:12:55.472Z,100665.75
2022-11-08T00:15:21.900Z,100656.06
2022-11-08T00:17:48.348Z,100662.22
2022-11-08T00:20:14.805Z,100656.97
2022-11-08T00:22:41.296Z,100655.25
2022-11-08T00:25:08.033Z,100658.78
2022-11-08T00:27:34.517Z,100666.56
2022-11-08T00:30:01.003Z,100660.50
2022-11-08T00:32:27.509Z,100665.75
2022-11-08T00:34:54.243Z,100665.72
2022-11-08T00:37:21.846Z,100671.75
2022-11-08T00:39:48.764Z,100672.78
2022-11-08T00:42:15.504Z,100663.94
2022-11-08T00:44:42.019Z,100670.03
2022-11-08T00:47:08.457Z,100669.22
2022-11-08T00:49:34.991Z,100669.16
2022-11-08T00:52:01.484Z,100663.91
2022-11-08T00:54:27.989Z,100674.38
2022-11-08T00:56:54.425Z,100668.22
2022-11-08T00:59:20.990Z,100670.09
2022-11-08T01:01:47.799Z,100664.84
2022-11-08T01:04:18.140Z,100665.72
2022-11-08T01:06:45.149Z,100665.75
2022-11-08T01:09:11.737Z,100673.50
2022-11-08T01:11:39.567Z,100664.78
2022-11-08T01:14:06.299Z,100670.91
2022-11-08T01:16:33.451Z,100664.69
2022-11-08T01:19:00.605Z,100667.38
2022-11-08T01:21:27.512Z,100656.94
2022-11-08T01:23:57.224Z,100649.97
2022-11-08T01:26:27.354Z,100658.66
2022-11-08T01:28:54.684Z,100653.47
2022-11-08T01:31:23.567Z,100657.81
2022-11-08T01:33:51.712Z,100659.56
2022-11-08T01:36:20.709Z,100663.03
2022-11-08T01:38:47.484Z,100661.38
2022-11-08T01:41:15.275Z,100650.91
2022-11-08T01:43:53.400Z,100657.81
2022-11-08T01:46:19.860Z,100663.06
2022-11-08T01:48:50.966Z,100649.97
2022-11-08T01:51:19.657Z,100653.44
2022-11-08T01:53:46.476Z,100647.31
2022-11-08T01:56:14.259Z,100657.78
2022-11-08T01:58:42.654Z,100653.44
2022-11-08T02:01:09.927Z,100651.66
2022-11-08T02:03:36.636Z,100647.38
2022-11-08T02:06:03.807Z,100650.78
2022-11-08T02:08:37.926Z,100649.13
2022-11-08T02:11:05.531Z,100648.25
2022-11-08T02:13:33.615Z,100643.03
2022-11-08T02:16:00.459Z,100639.56
2022-11-08T02:18:29.130Z,100641.25
2022-11-08T02:21:17.908Z,100650.88
2022-11-08T02:23:52.424Z,100647.44
2022-11-08T02:26:25.903Z,100643.03
2022-11-08T02:28:52.364Z,100645.63
2022-11-08T02:31:43.834Z,100641.28
2022-11-08T02:34:10.332Z,100635.16
2022-11-08T02:36:36.830Z,100638.66
2022-11-08T02:39:03.424Z,100643.13
2022-11-08T02:41:29.849Z,100638.75
2022-11-08T02:43:57.504Z,100639.66
2022-11-08T02:46:23.980Z,100637.84
2022-11-08T02:48:50.443Z,100634.25
2022-11-08T02:51:16.876Z,100634.31
2022-11-08T02:53:43.419Z,100638.75
2022-11-08T02:56:09.889Z,100633.44
2022-11-08T02:58:36.380Z,100629.91
2022-11-08T03:01:02.966Z,100634.28
2022-11-08T03:03:29.447Z,100632.53
2022-11-08T03:05:59.046Z,100636.06
2022-11-08T03:08:25.526Z,100639.53
2022-11-08T03:10:51.965Z,100638.75
2022-11-08T03:13:18.437Z,100636.94
2022-11-08T03:15:44.926Z,100636.00
2022-11-08T03:18:11.356Z,100638.75
2022-11-08T03:20:37.838Z,100630.81
2022-11-08T03:23:06.502Z,100623.84
2022-11-08T03:25:33.300Z,100635.16
2022-11-08T03:28:07.891Z,100629.06
2022-11-08T03:30:34.828Z,100634.25
2022-11-08T03:33:01.965Z,100641.28
2022-11-08T03:35:28.461Z,100639.47
2022-11-08T03:37:56.430Z,100644.66
2022-11-08T03:40:23.491Z,100642.13
2022-11-08T03:42:50.100Z,100635.13
2022-11-08T03:45:16.824Z,100638.53
2022-11-08T03:47:44.864Z,100632.53
2022-11-08T03:50:12.192Z,100626.31
2022-11-08T03:52:41.922Z,100632.47
2022-11-08T03:55:09.577Z,100627.25
2022-11-08T03:57:39.803Z,100635.16
2022-11-08T04:00:08.649Z,100626.34
2022-11-08T04:02:35.428Z,100625.56
2022-11-08T04:05:01.925Z,100618.56
2022-11-08T04:07:28.740Z,100617.72
2022-11-08T04:09:55.869Z,100616.72
2022-11-08T04:12:54.604Z,100623.78
2022-11-08T04:15:22.730Z,100613.25
2022-11-08T04:18:09.337Z,100615.00
2022-11-08T04:20:59.057Z,100622.91
2022-11-08T04:23:26.342Z,100632.50
2022-11-08T04:26:04.780Z,100620.16
2022-11-08T04:28:33.118Z,100611.53
2022-11-08T04:31:02.936Z,100615.13
2022-11-08T04:33:29.731Z,100618.59
2022-11-08T04:35:56.413Z,100615.94
2022-11-08T04:38:22.927Z,100609.81
2022-11-08T04:40:49.443Z,100622.94
2022-11-08T04:43:16.080Z,100610.75
2022-11-08T04:45:42.589Z,100605.47
2022-11-08T04:48:09.158Z,100612.47
2022-11-08T04:50:36.549Z,100611.72
2022-11-08T04:53:03.148Z,100600.28
2022-11-08T04:55:29.604Z,100603.84
2022-11-08T04:57:59.337Z,100615.19
2022-11-08T05:00:26.546Z,100611.63
2022-11-08T05:02:53.085Z,100610.81
2022-11-08T05:05:19.676Z,100612.56
2022-11-08T05:07:46.174Z,100608.22
2022-11-08T05:10:12.676Z,100602.03
2022-11-08T05:12:39.146Z,100604.69
2022-11-08T05:15:06.294Z,100607.38
2022-11-08T05:17:32.723Z,100602.13
2022-11-08T05:20:18.098Z,100609.94
2022-11-08T05:23:03.106Z,100613.47
2022-11-08T05:25:29.562Z,100610.88
2022-11-08T05:27:55.987Z,100602.13
2022-11-08T05:30:22.454Z,100611.72
2022-11-08T05:32:51.675Z,100618.72
2022-11-08T05:35:21.617Z,100619.59
2022-11-08T05:37:48.451Z,100621.34
2022-11-08T05:40:14.910Z,100612.66
2022-11-08T05:42:41.332Z,100612.59
2022-11-08T05:45:09.473Z,100613.50
2022-11-08T05:47:36.546Z,100609.16
2022-11-08T05:50:03.138Z,100606.47
2022-11-08T05:52:29.582Z,100601.28
2022-11-08T05:54:56.056Z,100601.28
2022-11-08T05:57:22.537Z,100604.78
2022-11-08T05:59:49.056Z,100599.56
2022-11-08T06:02:17.089Z,100606.50
2022-11-08T06:04:44.018Z,100606.50
2022-11-08T06:07:10.459Z,100596.94
2022-11-08T06:09:36.930Z,100604.75
2022-11-08T06:12:03.582Z,100600.34
2022-11-08T06:14:30.112Z,100596.88
2022-11-08T06:16:56.545Z,100601.31
2022-11-08T06:19:23.192Z,100603.00
2022-11-08T06:21:49.642Z,100599.53
2022-11-08T06:24:17.459Z,100597.78
2022-11-08T06:26:44.462Z,100595.16
2022-11-08T06:29:10.911Z,100608.22
2022-11-08T06:31:41.873Z,100601.28
2022-11-08T06:34:09.659Z,100598.59
2022-11-08T06:36:36.318Z,100585.59
2022-11-08T06:39:02.919Z,100593.41
2022-11-08T06:41:30.035Z,100585.59
2022-11-08T06:43:56.616Z,100586.47
2022-11-08T06:46:23.376Z,100582.97
2022-11-08T06:48:50.159Z,100582.09
2022-11-08T06:51:17.015Z,100572.53
2022-11-08T06:53:43.496Z,100573.38
2022-11-08T06:56:10.315Z,100572.50
2022-11-08T06:58:37.039Z,100578.59
2022-11-08T07:01:04.655Z,100576.84
2022-11-08T07:03:31.410Z,100577.72
2022-11-08T07:05:57.938Z,100582.06
2022-11-08T07:08:24.580Z,100583.84
2022-11-08T07:10:51.531Z,100589.97
2022-11-08T07:13:18.283Z,100576.81
2022-11-08T07:15:45.372Z,100582.97
2022-11-08T07:18:13.265Z,100580.34
2022-11-08T07:20:40.692Z,100582.97
2022-11-08T07:23:07.681Z,100586.47
2022-11-08T07:25:34.742Z,100587.34
2022-11-08T07:28:03.414Z,100584.72
2022-11-08T07:30:30.153Z,100588.22
2022-11-08T07:32:57.023Z,100583.84
2022-11-08T07:35:24.855Z,100592.56
2022-11-08T07:37:51.414Z,100582.13
2022-11-08T07:40:17.973Z,100588.22
2022-11-08T07:43:10.161Z,100580.34
2022-11-08T07:45:30.883Z,100582.97
2022-11-08T07:48:05.419Z,100584.72
2022-11-08T07:50:34.644Z,100571.56
2022-11-08T07:53:01.231Z,100580.34
2022-11-08T07:55:27.735Z,100583.84
2022-11-08T07:58:01.364Z,100579.50
2022-11-08T08:00:31.685Z,100582.09
2022-11-08T08:03:01.874Z,100586.47
2022-11-08T08:05:30.177Z,100581.22
2022-11-08T08:08:00.416Z,100575.91
2022-11-08T08:10:28.150Z,100579.44
2022-11-08T08:12:55.735Z,100572.50
2022-11-08T08:15:22.346Z,100579.47
2022-11-08T08:17:48.843Z,100569.84
2022-11-08T08:20:15.402Z,100576.81
2022-11-08T08:22:50.997Z,100571.63
2022-11-08T08:25:18.802Z,100579.47
2022-11-08T08:27:54.228Z,100576.84
2022-11-08T08:30:21.723Z,100582.06
2022-11-08T08:33:08.411Z,100569.88
2022-11-08T08:35:38.699Z,100576.84
2022-11-08T08:38:07.071Z,100567.03
2022-11-08T08:40:34.664Z,100567.91
2022-11-08T08:43:03.727Z,100571.44
2022-11-08T08:45:31.838Z,100561.84
2022-11-08T08:48:00.533Z,100559.16
2022-11-08T08:50:30.667Z,100550.38
2022-11-08T08:53:02.644Z,100557.44
2022-11-08T08:55:30.060Z,100553.81
2022-11-08T08:57:58.712Z,100557.16
2022-11-08T09:03:13.394Z,100543.38
2022-11-08T09:05:44.879Z,100551.03
2022-11-08T09:08:14.780Z,100537.72
2022-11-08T09:10:42.225Z,100550.22
2022-11-08T09:13:09.210Z,100535.50
2022-11-08T09:15:37.269Z,100552.84
2022-11-08T09:18:05.273Z,100540.66
2022-11-08T09:20:32.283Z,100537.91
2022-11-08T09:23:03.151Z,100533.31
2022-11-08T09:25:29.733Z,100529.97
2022-11-08T09:27:56.190Z,100524.28
2022-11-08T09:30:22.785Z,100517.94
2022-11-08T09:33:04.727Z,100515.03
2022-11-08T09:35:31.235Z,100506.25
2022-11-08T09:37:58.442Z,100506.69
2022-11-08T09:40:33.094Z,100505.22
2022-11-08T09:43:18.594Z,100497.94
2022-11-08T09:45:46.584Z,100497.94
2022-11-08T09:48:51.381Z,100496.06
2022-11-08T09:51:20.828Z,100497.00
2022-11-08T09:53:57.279Z,100493.44
2022-11-08T09:56:29.034Z,100504.50
2022-11-08T09:59:09.847Z,100485.25
2022-11-08T10:01:36.798Z,100482.53
2022-11-08T10:04:07.880Z,100482.63
2022-11-08T10:07:05.509Z,100479.75
2022-11-08T10:10:11.062Z,100480.34
2022-11-08T10:12:50.917Z,100475.22
2022-11-08T10:15:38.511Z,100478.03
2022-11-08T10:18:27.311Z,100478.56
2022-11-08T10:21:08.985Z,100471.78
2022-11-08T10:23:43.298Z,100465.56
2022-11-08T10:26:26.655Z,100461.16
2022-11-08T10:29:00.866Z,100458.28
2022-11-08T10:31:28.923Z,100446.22
2022-11-08T10:33:56.979Z,100453.50
2022-11-08T10:36:30.127Z,100453.25
2022-11-08T10:39:08.972Z,100451.63
2022-11-08T10:41:44.713Z,100438.16
2022-11-08T10:44:15.394Z,100429.59
2022-11-08T10:46:49.234Z,100428.78
2022-11-08T10:49:21.579Z,100420.72
2022-11-08T10:51:51.933Z,100426.13
2022-11-08T10:54:50.413Z,100419.78
2022-11-08T10:57:23.908Z,100407.78
2022-11-08T10:59:50.791Z,100409.31
2022-11-08T11:02:32.834Z,100413.16
2022-11-08T11:05:35.609Z,100402.25
2022-11-08T11:08:13.589Z,100402.69
2022-11-08T11:10:44.231Z,100396.97
2022-11-08T11:13:24.001Z,100394.59
2022-11-08T11:16:00.720Z,100394.13
2022-11-08T11:18:37.507Z,100386.25
2022-11-08T11:21:09.967Z,100367.03
2022-11-08T11:23:46.472Z,100363.22
2022-11-08T11:26:32.763Z,100363.59
2022-11-08T11:28:59.188Z,100365.97
2022-11-08T11:31:25.844Z,100362.22
2022-11-08T11:33:52.311Z,100364.03
2022-11-08T11:36:24.083Z,100370.28
2022-11-08T11:38:59.521Z,100377.72
2022-11-08T11:41:34.011Z,100372.00
2022-11-08T11:44:21.430Z,100365.72
2022-11-08T11:46:56.144Z,100374.00
2022-11-08T11:49:24.229Z,100367.66
2022-11-08T11:51:56.735Z,100361.84
2022-11-08T11:54:33.692Z,100358.56
2022-11-08T11:57:16.844Z,100349.59
2022-11-08T11:59:50.942Z,100349.41
2022-11-08T12:02:17.687Z,100344.63
2022-11-08T12:05:04.613Z,100349.88
2022-11-08T12:07:34.582Z,100332.72
2022-11-08T12:10:25.642Z,100326.16
2022-11-08T12:13:03.565Z,100336.06
2022-11-08T12:15:31.759Z,100330.38
2022-11-08T12:18:10.475Z,100319.63
2022-11-08T12:20:42.692Z,100319.31
2022-11-08T12:23:34.274Z,100317.19
2022-11-08T12:26:07.271Z,100317.50
2022-11-08T12:28:47.205Z,100319.84
2022-11-08T12:31:41.095Z,100319.34
2022-11-08T12:34:23.944Z,100316.97
2022-11-08T12:36:57.097Z,100311.13
2022-11-08T12:39:33.450Z,100306.41
2022-11-08T12:42:34.758Z,100310.63
2022-11-08T12:45:23.046Z,100310.91
2022-11-08T12:47:57.791Z,100295.66
2022-11-08T12:51:01.355Z,100295.78
2022-11-08T12:53:40.526Z,100285.28
2022-11-08T12:56:13.937Z,100280.94
2022-11-08T12:58:49.213Z,100281.81
2022-11-08T13:01:18.367Z,100283.28
2022-11-08T13:03:50.972Z,100290.69
2022-11-08T13:06:18.531Z,100286.16
2022-11-08T13:08:53.407Z,100285.25
2022-11-08T13:11:46.689Z,100278.69
2022-11-08T13:14:15.486Z,100276.44
2022-11-08T13:16:44.571Z,100273.75
2022-11-08T13:19:30.455Z,100263.28
2022-11-08T13:21:56.940Z,100281.84
2022-11-08T13:24:44.483Z,100279.19
2022-11-08T13:27:38.680Z,100276.22
2022-11-08T13:30:11.262Z,100268.50
2022-11-08T13:32:43.712Z,100279.19
2022-11-08T13:35:51.636Z,100281.78
2022-11-08T13:38:41.208Z,100275.47
2022-11-08T13:41:22.268Z,100269.03
2022-11-08T13:43:50.163Z,100261.72
2022-11-08T13:46:29.739Z,100269.13
2022-11-08T13:49:03.544Z,100248.94
2022-11-08T13:51:34.599Z,100254.25
2022-11-08T13:54:05.709Z,100251.13
2022-11-08T13:56:41.181Z,100251.56
2022-11-08T14:01:45.227Z,100251.91
2022-11-08T14:04:41.351Z,100243.22
2022-11-08T14:07:12.990Z,100229.22
2022-11-08T14:10:16.177Z,100221.59
2022-11-08T14:12:46.527Z,100236.75
2022-11-08T14:15:24.484Z,100238.78
2022-11-08T14:18:11.385Z,100247.34
2022-11-08T14:20:41.043Z,100239.44
2022-11-08T14:23:19.926Z,100239.13
2022-11-08T14:25:48.716Z,100235.03
2022-11-08T14:28:29.428Z,100230.50
2022-11-08T14:30:56.946Z,100236.13
2022-11-08T14:33:28.598Z,100228.94
2022-11-08T14:36:00.221Z,100228.75
2022-11-08T14:38:28.564Z,100238.63
2022-11-08T14:40:58.163Z,100225.47
2022-11-08T14:43:25.421Z,100224.41
2022-11-08T14:45:52.039Z,100229.81
2022-11-08T14:48:24.310Z,100220.97
2022-11-08T14:50:58.226Z,100219.28
2022-11-08T14:53:30.412Z,100213.94
2022-11-08T14:56:10.942Z,100216.59
2022-11-08T14:58:37.403Z,100221.88
2022-11-08T15:01:04.893Z,100213.31
2022-11-08T15:03:31.828Z,100212.19
2022-11-08T15:05:59.688Z,100205.78
2022-11-08T15:08:33.127Z,100219.16
2022-11-08T15:11:10.998Z,100204.09
2022-11-08T15:13:44.147Z,100202.44
2022-11-08T15:16:11.335Z,100202.16
2022-11-08T15:18:39.894Z,100199.28
2022-11-08T15:21:27.474Z,100188.31
2022-11-08T15:24:10.517Z,100187.66
2022-11-08T15:26:37.353Z,100199.34
2022-11-08T15:29:12.997Z,100195.19
2022-11-08T15:32:01.223Z,100192.09
2022-11-08T15:34:36.668Z,100193.72
2022-11-08T15:37:03.590Z,100190.63
2022-11-08T15:39:39.256Z,100179.06
2022-11-08T15:42:13.294Z,100188.16
2022-11-08T15:45:06.526Z,100175.41
2022-11-08T15:47:35.894Z,100182.72
2022-11-08T15:50:16.223Z,100183.91
2022-11-08T15:52:43.624Z,100172.34
2022-11-08T15:55:15.559Z,100170.03
2022-11-08T15:57:43.706Z,100169.53
2022-11-08T16:00:14.499Z,100172.34
2022-11-08T16:02:40.942Z,100171.53
2022-11-08T16:05:27.746Z,100167.69
2022-11-08T16:07:54.931Z,100171.59
2022-11-08T16:10:29.869Z,100175.97
2022-11-08T16:12:58.829Z,100185.28
2022-11-08T16:15:25.566Z,100178.81
2022-11-08T16:17:52.200Z,100182.53
2022-11-08T16:20:27.619Z,100171.22
2022-11-08T16:22:55.656Z,100184.81
2022-11-08T16:25:22.923Z,100180.63
2022-11-08T16:27:53.400Z,100184.81
2022-11-08T16:30:20.364Z,100178.53
2022-11-08T16:32:47.525Z,100176.47
2022-11-08T16:35:14.243Z,100169.59
2022-11-08T16:37:41.459Z,100162.63
2022-11-08T16:40:21.603Z,100174.19
2022-11-08T16:42:50.706Z,100180.19
2022-11-08T16:45:19.636Z,100175.50
2022-11-08T16:47:51.221Z,100173.03
2022-11-08T16:50:25.656Z,100178.91
2022-11-08T16:52:52.560Z,100175.56
2022-11-08T16:55:20.332Z,100172.47
2022-11-08T16:57:48.021Z,100170.63
2022-11-08T17:00:19.242Z,100174.97
2022-11-08T17:02:53.011Z,100185.00
2022-11-08T17:05:22.637Z,100172.41
2022-11-08T17:07:52.971Z,100193.97
2022-11-08T17:10:22.013Z,100197.34
2022-11-08T17:12:49.163Z,100184.75
2022-11-08T17:15:18.473Z,100193.53
2022-11-08T17:17:44.956Z,100193.94
2022-11-08T17:20:13.480Z,100203.59
2022-11-08T17:22:41.218Z,100201.63
2022-11-08T17:25:08.658Z,100202.25
2022-11-08T17:27:35.754Z,100202.28
2022-11-08T17:30:02.709Z,100208.25
2022-11-08T17:32:29.212Z,100209.81
2022-11-08T17:34:55.665Z,100216.38
2022-11-08T17:37:23.038Z,100218.88
2022-11-08T17:39:49.654Z,100210.16
2022-11-08T17:42:16.069Z,100208.00
2022-11-08T17:44:42.538Z,100214.72
2022-11-08T17:47:08.964Z,100214.09
2022-11-08T17:49:39.873Z,100212.16
2022-11-08T17:52:09.447Z,100218.72
2022-11-08T17:54:35.922Z,100216.88
2022-11-08T17:57:02.360Z,100216.94
2022-11-08T17:59:28.839Z,100203.06
2022-11-08T18:01:55.784Z,100212.19
2022-11-08T18:04:22.363Z,100208.88
2022-11-08T18:06:48.915Z,100217.75
2022-11-08T18:09:15.508Z,100219.19
2022-11-08T18:11:47.840Z,100222.56
2022-11-08T18:14:28.201Z,100225.41
2022-11-08T18:16:56.090Z,100226.44
2022-11-08T18:19:22.911Z,100224.25
2022-11-08T18:21:49.329Z,100224.06
2022-11-08T18:24:16.408Z,100230.31
2022-11-08T18:26:43.015Z,100221.13
2022-11-08T18:29:09.544Z,100224.16
2022-11-08T18:31:36.826Z,100220.56
2022-11-08T18:34:03.345Z,100202.69
2022-11-08T18:36:31.016Z,100215.69
2022-11-08T18:38:59.865Z,100215.19
2022-11-08T18:41:31.569Z,100219.22
2022-11-08T18:43:59.325Z,100217.56
2022-11-08T18:46:27.671Z,100204.38
2022-11-08T18:48:54.651Z,100206.03
2022-11-08T18:51:22.569Z,100211.31
2022-11-08T18:53:49.637Z,100218.53
2022-11-08T18:56:16.497Z,100217.03
2022-11-08T18:58:44.030Z,100208.59
2022-11-08T19:01:10.629Z,100209.03
2022-11-08T19:03:37.431Z,100206.13
2022-11-08T19:06:04.470Z,100209.44
2022-11-08T19:08:31.634Z,100211.06
2022-11-08T19:11:06.784Z,100205.06
2022-11-08T19:13:34.477Z,100202.75
2022-11-08T19:16:05.592Z,100201.75
2022-11-08T19:18:33.384Z,100201.41
2022-11-08T19:21:04.999Z,100212.31
2022-11-08T19:23:32.111Z,100204.91
2022-11-08T19:26:01.162Z,100211.94
2022-11-08T19:28:32.692Z,100208.69
2022-11-08T19:31:00.143Z,100212.06
2022-11-08T19:33:28.048Z,100212.88
2022-11-08T19:35:55.287Z,100215.72
2022-11-08T19:38:22.523Z,100221.19
2022-11-08T19:40:49.096Z,100216.50
2022-11-08T19:43:16.727Z,100222.19
2022-11-08T19:45:49.185Z,100225.38
2022-11-08T19:48:17.789Z,100231.31
2022-11-08T19:50:44.600Z,100234.41
2022-11-08T19:53:11.044Z,100239.44
2022-11-08T19:55:37.523Z,100236.88
2022-11-08T19:58:04.089Z,100235.41
2022-11-08T20:00:30.620Z,100243.69
2022-11-08T20:02:57.064Z,100239.34
2022-11-08T20:05:23.596Z,100240.34
2022-11-08T20:07:50.727Z,100241.63
2022-11-08T20:10:17.637Z,100239.00
2022-11-08T20:12:44.169Z,100243.69
2022-11-08T20:15:10.901Z,100237.22
2022-11-08T20:17:37.351Z,100232.50
2022-11-08T20:20:04.353Z,100236.59
2022-11-08T20:22:30.799Z,100232.06
2022-11-08T20:24:57.222Z,100232.00
2022-11-08T20:27:23.707Z,100240.50
2022-11-08T20:29:50.210Z,100224.25
2022-11-08T20:32:16.650Z,100233.00
2022-11-08T20:34:43.088Z,100239.06
2022-11-08T20:37:14.417Z,100235.34
2022-11-08T20:39:41.286Z,100245.72
2022-11-08T20:42:07.758Z,100239.50
2022-11-08T20:44:34.199Z,100226.59
2022-11-08T20:47:06.265Z,100231.53
2022-11-08T20:49:33.273Z,100230.28
2022-11-08T20:51:59.815Z,100233.84
2022-11-08T20:54:26.521Z,100230.00
2022-11-08T20:56:52.985Z,100230.00
2022-11-08T20:59:19.395Z,100234.59
2022-11-08T21:01:46.038Z,100236.56
2022-11-08T21:04:12.700Z,100234.44
2022-11-08T21:06:39.361Z,100231.41
2022-11-08T21:11:53.428Z,100239.97
2022-11-08T21:14:19.928Z,100241.66
2022-11-08T21:17:19.761Z,100234.03
2022-11-08T21:19:32.877Z,100235.56
2022-11-08T21:22:15.153Z,100224.63
2022-11-08T21:24:46.152Z,100231.16
2022-11-08T21:27:12.972Z,100226.06
2022-11-08T21:29:39.926Z,100220.88
2022-11-08T21:32:06.852Z,100233.78
2022-11-08T21:34:33.403Z,100224.13
2022-11-08T21:37:00.084Z,100234.16
2022-11-08T21:39:26.641Z,100237.34
2022-11-08T21:41:53.280Z,100234.03
2022-11-08T21:44:19.837Z,100238.31
2022-11-08T21:46:46.563Z,100240.78
2022-11-08T21:49:13.377Z,100233.00
2022-11-08T21:51:39.942Z,100235.72
2022-11-08T21:54:06.756Z,100232.88
2022-11-08T21:56:34.277Z,100232.81
2022-11-08T21:59:01.519Z,100239.72
2022-11-08T22:01:30.574Z,100236.63
2022-11-08T22:03:58.404Z,100237.44
2022-11-08T22:06:24.926Z,100243.59
2022-11-08T22:08:51.545Z,100237.84
2022-11-08T22:11:18.581Z,100234.91
2022-11-08T22:13:45.044Z,100233.00
2022-11-08T22:16:12.616Z,100229.44
2022-11-08T22:21:37.878Z,100235.13
2022-11-08T22:24:13.388Z,100230.84
2022-11-08T22:26:40.902Z,100232.00
2022-11-08T22:29:07.516Z,100234.41
2022-11-08T22:31:34.907Z,100231.75
2022-11-08T22:34:01.993Z,100241.69
2022-11-08T22:36:28.672Z,100231.31
2022-11-08T22:38:55.351Z,100234.53
2022-11-08T22:41:22.734Z,100234.16
2022-11-08T22:43:50.470Z,100230.16
2022-11-08T22:46:17.186Z,100234.22
2022-11-08T22:48:43.683Z,100234.97
2022-11-08T22:51:11.016Z,100229.03
2022-11-08T22:53:37.752Z,100238.03
2022-11-08T22:56:10.722Z,100227.16
2022-11-08T22:58:37.954Z,100217.66
2022-11-08T23:01:05.884Z,100219.97
2022-11-08T23:03:32.410Z,100210.78
2022-11-08T23:06:01.087Z,100220.50
2022-11-08T23:08:27.742Z,100223.47
2022-11-08T23:11:12.940Z,100233.66
2022-11-08T23:13:58.203Z,100229.75
2022-11-08T23:16:37.652Z,100227.69
2022-11-08T23:19:40.084Z,100221.78
2022-11-08T23:22:29.432Z,100220.13
2022-11-08T23:24:56.329Z,100226.63
2022-11-08T23:27:41.647Z,100232.50
2022-11-08T23:30:29.804Z,100229.31
2022-11-08T23:32:56.552Z,100236.00
2022-11-08T23:35:23.628Z,100228.13
2022-11-08T23:37:50.273Z,100234.22
2022-11-08T23:40:36.843Z,100238.66
2022-11-08T23:43:28.991Z,100233.91
2022-11-08T23:45:56.334Z,100227.25
2022-11-08T23:48:22.911Z,100235.41
2022-11-08T23:50:51.236Z,100241.38
2022-11-08T23:53:19.349Z,100241.38
2022-11-08T23:55:46.236Z,100235.53
2022-11-08T23:58:13.978Z,100243.06
